createdAt,value
2023-02-09T00:02:05.940Z,2.55
2023-02-09T00:04:36.593Z,1.98
2023-02-09T00:07:06.784Z,1.75
2023-02-09T00:09:37.189Z,1.55
2023-02-09T00:12:25.609Z,2.15
2023-02-09T00:14:57.876Z,1.73
2023-02-09T00:17:28.202Z,1.73
2023-02-09T00:19:58.173Z,1.52
2023-02-09T00:22:28.998Z,1.83
2023-02-09T00:24:59.476Z,1.98
2023-02-09T00:27:29.328Z,1.92
2023-02-09T00:30:00.832Z,2.17
2023-02-09T00:32:34.808Z,2.00
2023-02-09T00:35:29.147Z,2.22
2023-02-09T00:40:31.634Z,2.55
2023-02-09T00:43:12.955Z,2.60
2023-02-09T00:45:44.085Z,2.78
2023-02-09T00:48:14.868Z,2.60
2023-02-09T00:50:46.251Z,3.15
2023-02-09T00:53:17.714Z,2.90
2023-02-09T00:55:52.191Z,3.60
2023-02-09T00:58:24.327Z,2.78
2023-02-09T01:00:54.952Z,3.20
2023-02-09T01:06:17.461Z,3.15
2023-02-09T01:08:48.622Z,3.30
2023-02-09T01:11:19.299Z,3.30
2023-02-09T01:13:50.605Z,2.95
2023-02-09T01:16:22.448Z,3.67
2023-02-09T01:18:54.406Z,3.58
2023-02-09T01:21:25.396Z,3.33
2023-02-09T01:23:56.359Z,3.40
2023-02-09T01:26:27.026Z,3.55
2023-02-09T01:28:57.801Z,3.05
2023-02-09T01:31:31.702Z,3.60
2023-02-09T01:34:04.654Z,3.13
2023-02-09T01:36:35.474Z,2.95
2023-02-09T01:39:07.080Z,3.42
2023-02-09T01:41:37.821Z,3.67
2023-02-09T01:44:30.371Z,3.33
2023-02-09T01:47:02.076Z,3.08
2023-02-09T01:49:34.063Z,3.13
2023-02-09T01:52:22.766Z,3.55
2023-02-09T01:55:10.070Z,3.35
2023-02-09T01:57:46.965Z,3.47
2023-02-09T02:00:19.575Z,3.10
2023-02-09T02:02:56.118Z,3.28
2023-02-09T02:05:30.689Z,3.75
2023-02-09T02:08:17.779Z,3.15
2023-02-09T02:10:48.586Z,3.40
2023-02-09T02:13:18.932Z,3.20
2023-02-09T02:16:17.756Z,3.13
2023-02-09T02:19:22.443Z,3.47
2023-02-09T02:22:00.029Z,2.90
2023-02-09T02:24:49.037Z,3.45
2023-02-09T02:27:54.114Z,3.38
2023-02-09T02:30:48.961Z,2.92
2023-02-09T02:33:25.916Z,3.13
2023-02-09T02:36:07.249Z,3.30
2023-02-09T02:39:06.936Z,3.30
2023-02-09T02:42:00.419Z,3.00
2023-02-09T02:44:32.331Z,3.28
2023-02-09T02:47:06.835Z,3.15
2023-02-09T02:49:59.600Z,3.10
2023-02-09T02:52:31.442Z,3.08
2023-02-09T02:55:11.288Z,3.13
2023-02-09T02:57:45.702Z,3.10
2023-02-09T03:00:27.023Z,3.35
2023-02-09T03:03:02.329Z,3.17
2023-02-09T03:08:03.491Z,3.30
2023-02-09T03:10:39.419Z,3.40
2023-02-09T03:13:38.215Z,3.60
2023-02-09T03:16:49.027Z,4.03
2023-02-09T03:19:19.449Z,3.80
2023-02-09T03:21:58.256Z,3.97
2023-02-09T03:24:39.144Z,3.70
2023-02-09T03:27:41.020Z,3.88
2023-02-09T03:30:14.986Z,3.85
2023-02-09T03:32:48.255Z,3.90
2023-02-09T03:35:21.936Z,3.47
2023-02-09T03:37:52.563Z,4.05
2023-02-09T03:40:22.587Z,3.97
2023-02-09T03:42:52.883Z,4.03
2023-02-09T03:45:23.147Z,4.05
2023-02-09T03:47:54.253Z,3.95
2023-02-09T03:50:24.220Z,4.00
2023-02-09T03:52:57.089Z,4.00
2023-02-09T03:55:38.547Z,4.07
2023-02-09T04:00:38.371Z,4.13
2023-02-09T04:03:12.317Z,4.18
2023-02-09T04:05:42.445Z,4.40
2023-02-09T04:08:13.631Z,3.88
2023-02-09T04:10:44.969Z,4.70
2023-02-09T04:13:15.159Z,4.00
2023-02-09T04:15:44.883Z,3.90
2023-02-09T04:18:18.164Z,3.78
2023-02-09T04:20:49.984Z,4.63
2023-02-09T04:23:21.242Z,4.03
2023-02-09T04:25:51.452Z,4.35
2023-02-09T04:28:26.805Z,4.57
2023-02-09T04:30:58.394Z,4.00
2023-02-09T04:33:29.288Z,3.80
2023-02-09T04:35:59.081Z,4.15
2023-02-09T04:38:31.019Z,4.43
2023-02-09T04:41:03.337Z,3.85
2023-02-09T04:43:34.911Z,3.85
2023-02-09T04:46:05.084Z,3.72
2023-02-09T04:48:36.798Z,4.00
2023-02-09T04:51:07.937Z,3.60
2023-02-09T04:53:38.589Z,3.72
2023-02-09T04:59:10.253Z,3.67
2023-02-09T05:01:41.947Z,3.58
2023-02-09T05:04:13.278Z,3.25
2023-02-09T05:07:01.312Z,3.85
2023-02-09T05:09:41.865Z,3.13
2023-02-09T05:12:12.230Z,3.53
2023-02-09T05:14:44.686Z,4.03
2023-02-09T05:17:14.895Z,3.80
2023-02-09T05:19:44.624Z,3.88
2023-02-09T05:22:15.571Z,3.58
2023-02-09T05:24:45.708Z,3.53
2023-02-09T05:27:16.288Z,3.92
2023-02-09T05:29:46.654Z,3.45
2023-02-09T05:32:17.221Z,3.75
2023-02-09T05:34:47.843Z,3.85
2023-02-09T05:37:19.830Z,3.70
2023-02-09T05:39:52.363Z,3.63
2023-02-09T05:42:22.694Z,3.95
2023-02-09T05:44:54.174Z,3.85
2023-02-09T05:47:26.224Z,3.50
2023-02-09T05:49:57.120Z,3.80
2023-02-09T05:52:27.713Z,3.55
2023-02-09T05:57:44.681Z,3.22
2023-02-09T06:00:31.004Z,4.10
2023-02-09T06:03:01.316Z,3.55
2023-02-09T06:05:31.449Z,3.50
2023-02-09T06:08:02.476Z,3.78
2023-02-09T06:10:33.336Z,3.63
2023-02-09T06:13:03.058Z,4.05
2023-02-09T06:15:34.229Z,3.67
2023-02-09T06:18:04.873Z,3.50
2023-02-09T06:20:40.599Z,3.70
2023-02-09T06:23:10.737Z,3.40
2023-02-09T06:25:41.980Z,3.35
2023-02-09T06:28:12.609Z,3.47
2023-02-09T06:30:48.162Z,3.38
2023-02-09T06:33:19.888Z,2.90
2023-02-09T06:35:52.356Z,3.10
2023-02-09T06:38:34.229Z,3.17
2023-02-09T06:41:06.088Z,3.25
2023-02-09T06:43:52.502Z,2.80
2023-02-09T06:46:23.319Z,2.92
2023-02-09T06:48:54.587Z,2.92
2023-02-09T06:51:25.589Z,3.00
2023-02-09T06:53:56.672Z,2.78
2023-02-09T06:56:32.649Z,2.65
2023-02-09T06:59:03.470Z,3.03
2023-02-09T07:01:33.740Z,2.97
2023-02-09T07:04:04.594Z,2.92
2023-02-09T07:06:34.712Z,2.65
2023-02-09T07:09:07.082Z,2.65
2023-02-09T07:11:38.707Z,2.85
2023-02-09T07:14:28.963Z,2.45
2023-02-09T07:16:59.274Z,3.47
2023-02-09T07:19:29.640Z,3.33
2023-02-09T07:22:00.046Z,3.40
2023-02-09T07:24:29.751Z,3.22
2023-02-09T07:27:00.440Z,3.55
2023-02-09T07:29:30.385Z,3.55
2023-02-09T07:32:01.130Z,3.13
2023-02-09T07:34:32.126Z,3.72
2023-02-09T07:37:02.556Z,3.50
2023-02-09T07:39:33.302Z,3.22
2023-02-09T07:42:04.322Z,3.35
2023-02-09T07:44:52.684Z,3.33
2023-02-09T07:50:12.526Z,3.35
2023-02-09T07:52:58.180Z,3.53
2023-02-09T07:55:29.184Z,4.03
2023-02-09T07:57:59.531Z,3.63
2023-02-09T08:00:29.373Z,4.00
2023-02-09T08:03:01.466Z,3.83
2023-02-09T08:05:51.839Z,3.60
2023-02-09T08:08:25.460Z,3.85
2023-02-09T08:13:43.224Z,3.95
2023-02-09T08:16:17.671Z,3.83
2023-02-09T08:18:57.419Z,3.80
2023-02-09T08:21:30.170Z,3.75
2023-02-09T08:24:12.275Z,3.75
2023-02-09T08:26:43.221Z,4.35
2023-02-09T08:29:15.249Z,3.45
2023-02-09T08:31:46.118Z,4.38
2023-02-09T08:34:42.031Z,4.32
2023-02-09T08:37:12.443Z,4.38
2023-02-09T08:39:42.746Z,4.40
2023-02-09T08:42:16.174Z,3.78
2023-02-09T08:44:46.628Z,3.80
2023-02-09T08:47:16.910Z,3.75
2023-02-09T08:49:47.354Z,4.15
2023-02-09T08:52:17.057Z,3.95
2023-02-09T08:54:47.105Z,4.60
2023-02-09T08:57:17.411Z,4.68
2023-02-09T08:59:48.693Z,4.80
2023-02-09T09:02:18.659Z,5.18
2023-02-09T09:04:49.276Z,5.32
2023-02-09T09:07:29.603Z,4.63
2023-02-09T09:10:00.240Z,4.57
2023-02-09T09:12:31.552Z,4.10
2023-02-09T09:15:02.195Z,4.25
2023-02-09T09:17:31.967Z,4.13
2023-02-09T09:20:03.131Z,4.00
2023-02-09T09:22:33.485Z,3.80
2023-02-09T09:25:04.925Z,4.20
2023-02-09T09:27:36.192Z,5.03
2023-02-09T09:30:07.353Z,4.50
2023-02-09T09:32:38.315Z,4.82
2023-02-09T09:35:09.948Z,4.85
2023-02-09T09:37:40.087Z,3.70
2023-02-09T09:40:13.406Z,2.75
2023-02-09T09:42:49.815Z,2.83
2023-02-09T09:45:24.609Z,2.80
2023-02-09T09:48:04.289Z,2.83
2023-02-09T09:50:40.896Z,2.28
2023-02-09T09:53:34.342Z,2.75
2023-02-09T09:56:10.856Z,1.83
2023-02-09T09:58:44.699Z,2.50
2023-02-09T10:01:21.322Z,1.98
2023-02-09T10:04:02.491Z,2.10
2023-02-09T10:06:37.528Z,2.20
2023-02-09T10:09:29.104Z,2.17
2023-02-09T10:12:37.183Z,2.03
2023-02-09T10:15:29.214Z,1.70
2023-02-09T10:18:00.711Z,2.85
2023-02-09T10:20:52.158Z,2.22
2023-02-09T10:23:38.993Z,2.40
2023-02-09T10:26:09.513Z,3.92
2023-02-09T10:28:45.827Z,2.97
2023-02-09T10:31:28.050Z,2.22
2023-02-09T10:34:32.486Z,2.47
2023-02-09T10:37:32.889Z,2.30
2023-02-09T10:40:20.824Z,2.20
2023-02-09T10:43:36.721Z,3.38
2023-02-09T10:46:19.314Z,2.75
2023-02-09T10:48:51.288Z,2.80
2023-02-09T10:51:34.850Z,2.10
2023-02-09T10:54:11.172Z,2.30
2023-02-09T10:56:49.989Z,2.45
2023-02-09T10:59:26.916Z,2.00
2023-02-09T11:02:03.356Z,2.65
2023-02-09T11:04:42.565Z,2.42
2023-02-09T11:07:19.500Z,2.67
2023-02-09T11:09:54.258Z,2.33
2023-02-09T11:12:27.821Z,2.13
2023-02-09T11:14:58.182Z,2.50
2023-02-09T11:17:38.436Z,2.40
2023-02-09T11:20:12.083Z,2.63
2023-02-09T11:22:51.374Z,2.42
2023-02-09T11:25:29.573Z,2.33
2023-02-09T11:28:19.246Z,2.00
2023-02-09T11:30:56.855Z,3.47
2023-02-09T11:33:42.279Z,3.17
2023-02-09T11:36:41.199Z,2.75
2023-02-09T11:39:38.316Z,2.72
2023-02-09T11:42:38.865Z,5.18
2023-02-09T11:45:18.271Z,2.75
2023-02-09T11:48:06.746Z,3.40
2023-02-09T11:51:06.351Z,2.92
2023-02-09T11:53:42.235Z,2.92
2023-02-09T11:56:21.367Z,2.63
2023-02-09T11:59:33.339Z,3.00
2023-02-09T12:02:11.523Z,3.13
2023-02-09T12:04:55.072Z,2.40
2023-02-09T12:08:20.968Z,2.50
2023-02-09T12:11:22.914Z,2.50
2023-02-09T12:14:12.275Z,2.88
2023-02-09T12:19:42.857Z,2.30
2023-02-09T12:22:37.512Z,3.10
2023-02-09T12:25:25.410Z,3.55
2023-02-09T12:28:39.304Z,3.10
2023-02-09T12:31:16.816Z,2.95
2023-02-09T12:33:47.022Z,3.15
2023-02-09T12:36:19.678Z,2.90
2023-02-09T12:38:56.833Z,3.10
2023-02-09T12:41:41.254Z,4.00
2023-02-09T12:44:11.801Z,4.03
2023-02-09T12:46:49.878Z,3.90
2023-02-09T12:49:34.325Z,3.80
2023-02-09T12:52:11.477Z,2.90
2023-02-09T12:54:46.039Z,2.83
2023-02-09T12:57:21.722Z,2.30
2023-02-09T13:00:01.151Z,2.83
2023-02-09T13:02:50.966Z,3.45
2023-02-09T13:05:35.403Z,2.90
2023-02-09T13:08:18.653Z,4.18
2023-02-09T13:11:01.451Z,2.75
2023-02-09T13:13:59.288Z,3.40
2023-02-09T13:16:32.931Z,3.20
2023-02-09T13:19:21.526Z,2.85
2023-02-09T13:22:23.011Z,3.15
2023-02-09T13:25:39.805Z,3.22
2023-02-09T13:28:17.932Z,3.65
2023-02-09T13:30:49.433Z,3.40
2023-02-09T13:33:29.434Z,3.75
2023-02-09T13:36:16.269Z,3.60
2023-02-09T13:38:55.491Z,4.03
2023-02-09T13:41:41.462Z,3.88
2023-02-09T13:44:45.453Z,3.70
2023-02-09T13:47:17.480Z,3.00
2023-02-09T13:49:58.303Z,3.72
2023-02-09T13:52:34.970Z,3.60
2023-02-09T13:55:28.740Z,2.58
2023-02-09T13:58:08.361Z,2.65
2023-02-09T14:01:00.586Z,2.45
2023-02-09T14:03:58.855Z,2.22
2023-02-09T14:06:45.558Z,2.65
2023-02-09T14:09:26.150Z,2.95
2023-02-09T14:12:00.662Z,2.42
2023-02-09T14:14:58.154Z,2.45
2023-02-09T14:17:40.009Z,2.50
2023-02-09T14:23:02.828Z,2.58
2023-02-09T14:28:03.281Z,2.33
2023-02-09T14:30:52.225Z,2.50
2023-02-09T14:33:29.916Z,2.95
2023-02-09T14:36:03.128Z,2.83
2023-02-09T14:38:48.949Z,4.78
2023-02-09T14:41:34.718Z,3.50
2023-02-09T14:44:08.225Z,3.08
2023-02-09T14:49:54.073Z,2.60
2023-02-09T14:52:30.014Z,2.50
2023-02-09T14:55:04.174Z,2.97
2023-02-09T14:57:37.290Z,2.45
2023-02-09T15:00:23.522Z,3.45
2023-02-09T15:02:56.814Z,3.00
2023-02-09T15:05:27.929Z,3.10
2023-02-09T15:08:05.540Z,2.65
2023-02-09T15:10:44.168Z,2.47
2023-02-09T15:13:16.366Z,2.83
2023-02-09T15:15:52.512Z,2.40
2023-02-09T15:18:28.861Z,2.63
2023-02-09T15:21:00.707Z,2.67
2023-02-09T15:23:31.029Z,2.72
2023-02-09T15:26:00.908Z,2.67
2023-02-09T15:28:33.268Z,2.53
2023-02-09T15:31:04.081Z,3.05
2023-02-09T15:33:35.050Z,2.60
2023-02-09T15:36:06.501Z,2.17
2023-02-09T15:38:37.891Z,3.03
2023-02-09T15:41:26.673Z,2.75
2023-02-09T15:44:16.042Z,2.50
2023-02-09T15:47:04.877Z,2.55
2023-02-09T15:49:35.690Z,2.72
2023-02-09T15:52:05.888Z,3.10
2023-02-09T15:54:37.321Z,2.97
2023-02-09T15:57:07.757Z,2.75
2023-02-09T15:59:37.719Z,3.90
2023-02-09T16:02:15.824Z,2.78
2023-02-09T16:04:48.025Z,2.90
2023-02-09T16:07:26.288Z,2.75
2023-02-09T16:10:04.442Z,2.72
2023-02-09T16:13:12.561Z,3.05
2023-02-09T16:15:44.639Z,2.70
2023-02-09T16:18:15.403Z,2.92
2023-02-09T16:20:48.306Z,2.75
2023-02-09T16:23:23.488Z,2.72
2023-02-09T16:25:55.704Z,2.42
2023-02-09T16:28:46.096Z,2.80
2023-02-09T16:31:16.282Z,2.50
2023-02-09T16:33:49.958Z,2.47
2023-02-09T16:36:25.008Z,2.40
2023-02-09T16:38:55.650Z,2.28
2023-02-09T16:41:43.663Z,2.35
2023-02-09T16:44:24.416Z,2.20
2023-02-09T16:46:58.068Z,2.33
2023-02-09T16:49:34.735Z,2.17
2023-02-09T16:52:08.666Z,2.55
2023-02-09T16:54:44.853Z,2.38
2023-02-09T16:57:18.701Z,2.25
2023-02-09T16:59:49.119Z,2.33
2023-02-09T17:02:50.484Z,2.42
2023-02-09T17:05:29.418Z,2.65
2023-02-09T17:08:11.640Z,2.60
2023-02-09T17:10:41.978Z,2.42
2023-02-09T17:13:13.074Z,2.72
2023-02-09T17:15:50.364Z,2.80
2023-02-09T17:18:45.433Z,2.53
2023-02-09T17:21:29.025Z,2.58
2023-02-09T17:24:01.393Z,2.78
2023-02-09T17:26:32.933Z,2.95
2023-02-09T17:29:23.746Z,2.42
2023-02-09T17:31:54.205Z,2.78
2023-02-09T17:34:28.173Z,2.95
2023-02-09T17:37:09.845Z,3.33
2023-02-09T17:39:40.901Z,3.05
2023-02-09T17:42:22.743Z,2.80
2023-02-09T17:47:24.748Z,2.72
2023-02-09T17:49:55.447Z,3.33
2023-02-09T17:52:25.542Z,3.05
2023-02-09T17:54:55.708Z,2.45
2023-02-09T17:57:28.697Z,2.80
2023-02-09T18:00:00.726Z,3.03
2023-02-09T18:02:33.772Z,2.75
2023-02-09T18:05:04.045Z,2.55
2023-02-09T18:07:33.827Z,3.00
2023-02-09T18:10:04.355Z,2.90
2023-02-09T18:12:34.600Z,2.53
2023-02-09T18:15:39.206Z,2.90
2023-02-09T18:18:09.226Z,3.30
2023-02-09T18:20:39.374Z,3.03
2023-02-09T18:23:15.449Z,2.83
2023-02-09T18:25:48.639Z,2.88
2023-02-09T18:28:19.204Z,2.70
2023-02-09T18:30:49.421Z,6.65
2023-02-09T18:33:26.921Z,3.47
2023-02-09T18:35:57.598Z,3.20
2023-02-09T18:38:27.402Z,2.90
2023-02-09T18:40:57.545Z,3.30
2023-02-09T18:43:28.152Z,3.30
2023-02-09T18:45:59.346Z,3.53
2023-02-09T18:48:30.303Z,3.10
2023-02-09T18:51:00.153Z,2.97
2023-02-09T18:53:30.904Z,3.08
2023-02-09T18:56:01.656Z,3.60
2023-02-09T18:58:32.854Z,3.40
2023-02-09T19:01:03.259Z,3.40
2023-02-09T19:03:33.027Z,3.13
2023-02-09T19:06:03.935Z,3.33
2023-02-09T19:08:35.574Z,3.25
2023-02-09T19:11:18.987Z,3.90
2023-02-09T19:14:22.453Z,3.40
2023-02-09T19:16:53.719Z,3.15
2023-02-09T19:19:24.560Z,3.22
2023-02-09T19:21:55.619Z,3.58
2023-02-09T19:24:26.247Z,3.42
2023-02-09T19:26:57.691Z,3.38
2023-02-09T19:29:30.948Z,3.53
2023-02-09T19:32:01.365Z,3.50
2023-02-09T19:34:38.509Z,3.17
2023-02-09T19:37:10.063Z,3.58
2023-02-09T19:39:42.664Z,3.50
2023-02-09T19:42:14.246Z,3.03
2023-02-09T19:44:44.429Z,3.28
2023-02-09T19:47:14.621Z,2.97
2023-02-09T19:49:47.384Z,3.13
2023-02-09T19:52:18.701Z,3.08
2023-02-09T19:54:51.473Z,3.53
2023-02-09T19:57:24.159Z,2.78
2023-02-09T19:59:55.867Z,3.28
2023-02-09T20:02:26.617Z,3.00
2023-02-09T20:04:57.530Z,3.20
2023-02-09T20:07:28.135Z,3.05
2023-02-09T20:09:59.176Z,3.35
2023-02-09T20:12:30.957Z,2.95
2023-02-09T20:15:01.667Z,2.90
2023-02-09T20:17:31.451Z,2.45
2023-02-09T20:20:02.583Z,3.30
2023-02-09T20:22:33.478Z,2.95
2023-02-09T20:25:03.773Z,2.63
2023-02-09T20:27:33.820Z,2.97
2023-02-09T20:30:08.498Z,3.20
2023-02-09T20:32:39.543Z,2.90
2023-02-09T20:35:13.369Z,3.05
2023-02-09T20:37:43.556Z,3.80
2023-02-09T20:40:14.142Z,3.13
2023-02-09T20:43:02.550Z,3.50
2023-02-09T20:45:52.922Z,3.42
2023-02-09T20:48:23.370Z,3.13
2023-02-09T20:50:55.508Z,3.20
2023-02-09T20:53:25.885Z,3.17
2023-02-09T20:55:56.012Z,3.40
2023-02-09T20:58:27.156Z,3.10
2023-02-09T21:00:58.172Z,3.60
2023-02-09T21:03:29.078Z,3.10
2023-02-09T21:06:00.115Z,2.92
2023-02-09T21:08:32.211Z,3.15
2023-02-09T21:11:02.178Z,3.00
2023-02-09T21:13:32.429Z,2.80
2023-02-09T21:16:04.104Z,3.20
2023-02-09T21:18:34.968Z,3.28
2023-02-09T21:21:10.941Z,2.90
2023-02-09T21:23:43.368Z,4.60
2023-02-09T21:26:17.181Z,3.42
2023-02-09T21:28:52.520Z,3.25
2023-02-09T21:31:33.812Z,3.00
2023-02-09T21:34:04.254Z,3.47
2023-02-09T21:36:34.178Z,3.15
2023-02-09T21:39:06.417Z,3.10
2023-02-09T21:41:56.153Z,3.00
2023-02-09T21:44:26.763Z,3.70
2023-02-09T21:46:56.808Z,3.20
2023-02-09T21:49:27.529Z,3.50
2023-02-09T21:51:57.723Z,3.67
2023-02-09T21:54:34.318Z,3.13
2023-02-09T21:57:05.187Z,3.00
2023-02-09T21:59:35.895Z,3.38
2023-02-09T22:02:06.512Z,3.40
2023-02-09T22:04:36.339Z,3.40
2023-02-09T22:07:07.053Z,3.80
2023-02-09T22:09:38.210Z,3.03
2023-02-09T22:12:09.783Z,3.28
2023-02-09T22:14:39.569Z,3.22
2023-02-09T22:17:12.076Z,3.50
2023-02-09T22:19:42.588Z,3.00
2023-02-09T22:22:12.898Z,3.47
2023-02-09T22:25:09.753Z,3.20
2023-02-09T22:27:39.929Z,3.83
2023-02-09T22:30:30.873Z,3.63
2023-02-09T22:33:05.004Z,3.45
2023-02-09T22:35:36.194Z,4.00
2023-02-09T22:38:06.387Z,3.55
2023-02-09T22:40:36.222Z,4.13
2023-02-09T22:43:06.955Z,3.35
2023-02-09T22:45:37.904Z,3.53
2023-02-09T22:48:13.228Z,3.97
2023-02-09T22:50:43.735Z,3.95
2023-02-09T22:53:13.619Z,4.38
2023-02-09T22:55:44.113Z,3.50
2023-02-09T22:58:16.010Z,3.97
2023-02-09T23:00:46.788Z,3.83
2023-02-09T23:03:16.528Z,3.72
2023-02-09T23:05:57.357Z,3.45
2023-02-09T23:08:28.885Z,3.20
2023-02-09T23:11:08.570Z,2.92
2023-02-09T23:13:39.911Z,2.97
2023-02-09T23:16:13.001Z,2.95
2023-02-09T23:18:50.646Z,2.92
2023-02-09T23:21:24.249Z,2.95
2023-02-09T23:23:54.584Z,2.80
2023-02-09T23:26:24.834Z,2.60
2023-02-09T23:28:57.423Z,3.05
2023-02-09T23:31:29.092Z,2.92
2023-02-09T23:34:00.219Z,2.42
2023-02-09T23:36:32.398Z,2.50
2023-02-09T23:39:07.769Z,2.90
2023-02-09T23:41:38.396Z,2.70
2023-02-09T23:44:16.445Z,2.72
2023-02-09T23:46:47.094Z,2.88
2023-02-09T23:49:17.143Z,2.78
2023-02-09T23:51:48.690Z,3.13
2023-02-09T23:54:19.323Z,2.90
2023-02-09T23:56:55.264Z,3.05
2023-02-09T23:59:25.669Z,2.78
